Time;durP1;ratioP1;P1;durP2;ratioP2;P2;SDS_P1;SDS_P2;PMS_P1;PMS_P2;Temp;Humidity;BMP_temperature;BMP_pressure;BME280_temperature;BME280_humidity;BME280_pressure;Samples;Min_cycle;Max_cycle;Signal;HPM_P1;HPM_P2
2023/08/29 00:00:47;;;;;;;3.88;3.58;;;;;;;25.99;38.92;94133.34;5077747;28;20631;-66
2023/08/29 00:03:14;;;;;;;3.72;3.42;;;;;;;25.98;38.77;94136.66;5060177;28;20196;-66
2023/08/29 00:05:40;;;;;;;4.32;3.97;;;;;;;25.93;38.77;94138.88;5059285;28;20205;-66
2023/08/29 00:08:09;;;;;;;4.55;3.72;;;;;;;25.91;39.03;94144.22;5077507;28;20200;-67
2023/08/29 00:10:35;;;;;;;4.07;3.78;;;;;;;25.90;39.25;94139.03;5059868;28;20204;-66
2023/08/29 00:13:02;;;;;;;4.20;3.80;;;;;;;25.89;38.99;94135.44;5060039;28;20660;-67
2023/08/29 00:15:30;;;;;;;3.80;3.50;;;;;;;25.84;39.40;94132.47;5060045;28;20236;-67
2023/08/29 00:17:57;;;;;;;3.83;3.53;;;;;;;25.82;39.30;94120.88;5077400;28;20182;-66
2023/08/29 00:20:23;;;;;;;4.55;3.85;;;;;;;25.81;39.14;94137.00;5077291;28;20586;-66
2023/08/29 00:22:50;;;;;;;4.55;3.75;;;;;;;25.75;39.57;94144.53;5077597;28;20181;-67
2023/08/29 00:25:18;;;;;;;4.20;3.80;;;;;;;25.73;39.47;94137.78;5077296;28;20191;-67
2023/08/29 00:27:45;;;;;;;4.57;4.15;;;;;;;25.69;39.90;94135.13;5077509;28;20246;-67
2023/08/29 00:30:12;;;;;;;4.07;3.72;;;;;;;25.62;39.51;94127.78;5059754;28;20184;-67
2023/08/29 00:32:40;;;;;;;4.28;3.97;;;;;;;25.56;39.45;94134.53;5059482;28;20687;-67
2023/08/29 00:35:08;;;;;;;4.28;3.88;;;;;;;25.52;39.79;94133.91;5077391;28;20189;-67
2023/08/29 00:37:34;;;;;;;4.20;3.80;;;;;;;25.45;40.04;94130.19;5059626;28;20201;-67
2023/08/29 00:40:01;;;;;;;4.53;3.97;;;;;;;25.40;39.70;94142.06;5059462;28;20205;-67
2023/08/29 00:42:29;;;;;;;4.25;3.85;;;;;;;25.35;40.00;94142.72;5059536;28;20201;-67
2023/08/29 00:44:56;;;;;;;4.75;3.72;;;;;;;25.29;40.47;94135.34;5072803;28;20264;-67
2023/08/29 00:47:23;;;;;;;4.35;3.95;;;;;;;25.20;40.02;94130.47;5057258;28;20186;-67
2023/08/29 00:49:49;;;;;;;4.60;3.97;;;;;;;25.14;40.27;94135.19;5056080;28;20266;-67
2023/08/29 00:52:16;;;;;;;4.10;3.70;;;;;;;25.08;40.34;94135.00;5056947;28;20211;-67
2023/08/29 00:54:43;;;;;;;4.30;3.92;;;;;;;25.04;40.91;94130.78;5056165;28;20194;-67
2023/08/29 00:57:09;;;;;;;4.10;3.80;;;;;;;25.03;40.56;94140.50;5056922;28;20207;-66
2023/08/29 00:59:38;;;;;;;4.05;3.75;;;;;;;25.01;41.09;94134.53;5055620;28;20630;-66
2023/08/29 01:02:05;;;;;;;4.75;4.32;;;;;;;25.00;41.31;94145.03;5072621;28;20198;-66
2023/08/29 01:04:31;;;;;;;3.80;3.42;;;;;;;24.90;41.55;94144.22;5056722;28;20208;-66
2023/08/29 01:06:59;;;;;;;4.40;4.05;;;;;;;24.85;41.59;94136.41;5056022;28;20198;-66
2023/08/29 01:09:26;;;;;;;4.03;3.72;;;;;;;24.80;42.12;94137.03;5056673;28;20202;-66
2023/08/29 01:11:57;;;;;;;4.22;3.85;;;;;;;24.78;41.91;94127.47;5055668;28;20201;-66
2023/08/29 01:14:30;;;;;;;4.75;3.72;;;;;;;24.81;42.10;94130.13;5055615;28;20206;-65
2023/08/29 01:17:06;;;;;;;4.22;3.83;;;;;;;24.84;42.18;94114.34;5056368;28;20189;-66
2023/08/29 01:19:36;;;;;;;5.13;3.53;;;;;;;24.87;42.22;94116.19;5055835;28;20201;-66
2023/08/29 01:22:14;;;;;;;3.97;3.67;;;;;;;24.89;42.16;94110.88;5056157;28;20189;-66
2023/08/29 01:24:46;;;;;;;3.90;3.60;;;;;;;24.92;41.77;94099.44;5056841;28;20190;-66
2023/08/29 01:27:14;;;;;;;3.78;3.47;;;;;;;24.97;41.74;94095.97;5056312;28;20198;-66
2023/08/29 01:29:42;;;;;;;4.25;3.85;;;;;;;24.98;41.76;94091.13;5056177;28;20532;-68
2023/08/29 01:32:09;;;;;;;5.78;3.78;;;;;;;25.00;41.82;94091.44;5055380;28;20190;-67
2023/08/29 01:34:36;;;;;;;4.35;3.72;;;;;;;24.97;41.89;94098.81;5055264;28;20218;-67
2023/08/29 01:37:02;;;;;;;3.85;3.55;;;;;;;24.97;41.84;94100.84;5056333;28;20182;-68
2023/08/29 01:39:29;;;;;;;3.88;3.58;;;;;;;24.98;41.59;94093.94;5055212;28;20248;-68
2023/08/29 01:41:56;;;;;;;4.30;3.90;;;;;;;24.95;42.02;94090.03;5055414;28;20236;-68
2023/08/29 01:44:24;;;;;;;3.97;3.67;;;;;;;24.97;41.97;94098.03;5068493;28;20239;-68
2023/08/29 01:46:51;;;;;;;3.60;3.28;;;;;;;24.95;42.33;94092.09;5075865;28;20222;-68
2023/08/29 01:49:19;;;;;;;3.95;3.33;;;;;;;24.96;41.93;94085.97;5075889;28;20208;-68
2023/08/29 01:51:45;;;;;;;4.00;3.70;;;;;;;24.93;41.82;94084.06;5057894;28;20213;-68
2023/08/29 01:54:12;;;;;;;4.35;3.95;;;;;;;24.93;42.02;94098.19;5075690;28;20216;-68
2023/08/29 01:56:40;;;;;;;4.10;3.80;;;;;;;24.94;41.88;94096.91;5075450;28;20177;-68
2023/08/29 01:59:07;;;;;;;4.45;4.05;;;;;;;24.96;41.97;94090.81;5075879;28;20212;-68
2023/08/29 02:01:35;;;;;;;4.50;4.00;;;;;;;24.92;42.14;94093.03;5058184;28;20250;-68
2023/08/29 02:04:02;;;;;;;4.85;4.22;;;;;;;24.97;41.58;94087.53;5075625;28;20181;-67
2023/08/29 02:06:29;;;;;;;4.53;3.90;;;;;;;24.98;42.30;94091.13;5057719;28;20196;-67
2023/08/29 02:08:56;;;;;;;6.15;3.92;;;;;;;24.98;42.01;94093.94;5075559;28;20185;-67
2023/08/29 02:11:23;;;;;;;4.32;3.85;;;;;;;24.99;41.90;94098.34;5058101;28;20205;-67
2023/08/29 02:13:49;;;;;;;4.43;3.83;;;;;;;24.98;41.90;94094.75;5057601;28;20571;-67
2023/08/29 02:16:16;;;;;;;4.50;3.53;;;;;;;24.96;41.82;94096.47;5075434;28;20247;-68
2023/08/29 02:18:44;;;;;;;4.47;4.05;;;;;;;24.92;41.96;94099.44;5057905;28;20193;-67
2023/08/29 02:21:11;;;;;;;4.22;3.83;;;;;;;24.89;42.22;94103.19;5075314;28;20261;-67
2023/08/29 02:23:37;;;;;;;4.38;3.85;;;;;;;24.82;42.31;94109.13;5075217;28;20593;-67
2023/08/29 02:26:05;;;;;;;4.18;3.63;;;;;;;24.77;42.38;94098.50;5075377;28;20254;-67
2023/08/29 02:28:35;;;;;;;5.47;3.90;;;;;;;24.78;42.72;94091.59;5074632;28;20593;-67
2023/08/29 02:31:05;;;;;;;4.45;3.85;;;;;;;24.79;42.47;94081.09;5057921;28;20627;-66
2023/08/29 02:33:31;;;;;;;4.43;4.03;;;;;;;24.79;42.43;94081.09;5057812;28;20274;-66
2023/08/29 02:36:00;;;;;;;4.10;3.70;;;;;;;24.80;42.49;94085.47;5075248;28;20201;-66
2023/08/29 02:38:26;;;;;;;4.45;3.88;;;;;;;24.80;42.53;94088.28;5057546;28;20234;-66
2023/08/29 02:40:53;;;;;;;4.35;3.83;;;;;;;24.79;42.65;94090.34;5075201;28;20193;-66
2023/08/29 02:43:20;;;;;;;4.38;3.95;;;;;;;24.79;42.51;94089.56;5054047;28;20234;-66
2023/08/29 02:45:46;;;;;;;3.88;3.53;;;;;;;24.79;42.44;94086.75;5054883;28;20212;-66
2023/08/29 02:48:13;;;;;;;4.95;3.97;;;;;;;24.79;42.54;94081.09;5054699;28;20197;-66
2023/08/29 02:50:40;;;;;;;4.20;3.80;;;;;;;24.78;42.70;94080.31;5054036;28;20198;-66
2023/08/29 02:53:08;;;;;;;3.80;3.50;;;;;;;24.79;42.49;94087.50;5055115;28;20214;-67
2023/08/29 02:55:36;;;;;;;4.50;4.10;;;;;;;24.77;42.72;94086.44;5054390;28;20621;-67
2023/08/29 02:58:02;;;;;;;6.18;3.90;;;;;;;24.76;42.75;94098.94;5055028;28;20220;-66
2023/08/29 03:00:29;;;;;;;4.15;3.75;;;;;;;24.74;42.85;94085.34;5053530;28;20232;-68
2023/08/29 03:02:57;;;;;;;4.13;3.72;;;;;;;24.74;42.64;94105.06;5054274;28;20198;-68
2023/08/29 03:05:24;;;;;;;4.28;3.58;;;;;;;24.72;42.84;94097.06;5055106;28;20185;-68
2023/08/29 03:07:50;;;;;;;4.10;3.67;;;;;;;24.73;42.80;94095.06;5054055;28;20197;-68
2023/08/29 03:10:19;;;;;;;4.68;4.03;;;;;;;24.69;43.14;94098.03;5054552;28;20186;-68
2023/08/29 03:12:46;;;;;;;4.85;4.40;;;;;;;24.61;42.82;94095.97;5053762;28;20540;-68
2023/08/29 03:15:13;;;;;;;4.18;3.88;;;;;;;24.49;43.08;94101.25;5054287;28;20209;-68
2023/08/29 03:17:43;;;;;;;4.63;3.90;;;;;;;24.44;43.40;94096.25;5054263;28;20205;-68
2023/08/29 03:20:11;;;;;;;3.80;3.50;;;;;;;24.39;43.88;94082.75;5054327;28;20201;-68
2023/08/29 03:22:38;;;;;;;4.18;3.88;;;;;;;24.36;43.69;94086.47;5053498;28;20198;-68
2023/08/29 03:25:06;;;;;;;5.22;4.00;;;;;;;24.32;44.02;94079.44;5054345;28;20617;-68
2023/08/29 03:27:34;;;;;;;4.75;3.85;;;;;;;24.29;44.14;94083.97;5054436;28;20276;-68
2023/08/29 03:30:01;;;;;;;4.32;3.92;;;;;;;24.23;44.17;94075.34;5053758;28;20231;-68
2023/08/29 03:32:28;;;;;;;4.43;4.00;;;;;;;24.21;44.18;94074.25;5054224;28;20648;-68
2023/08/29 03:34:55;;;;;;;4.18;3.83;;;;;;;24.19;44.42;94071.91;5053968;28;20225;-68
2023/08/29 03:37:21;;;;;;;4.45;4.05;;;;;;;24.16;44.41;94078.47;5054043;28;20216;-67
2023/08/29 03:39:48;;;;;;;5.82;4.13;;;;;;;24.10;44.61;94079.53;5057002;28;20212;-68
2023/08/29 03:42:15;;;;;;;5.88;4.10;;;;;;;24.00;44.95;94082.34;5058221;28;20263;-67
2023/08/29 03:44:43;;;;;;;4.18;3.88;;;;;;;23.99;45.16;94079.97;5073341;28;20237;-67
2023/08/29 03:47:10;;;;;;;4.28;3.97;;;;;;;23.99;45.08;94077.16;5077987;28;20533;-67
2023/08/29 03:49:37;;;;;;;4.28;3.90;;;;;;;23.97;44.95;94063.53;5060610;28;20196;-67
2023/08/29 03:52:04;;;;;;;5.10;4.57;;;;;;;23.91;45.31;94068.22;5077336;28;20510;-67
2023/08/29 03:54:30;;;;;;;4.82;4.30;;;;;;;23.86;45.42;94070.88;5078016;28;20286;-68
2023/08/29 03:56:57;;;;;;;6.80;4.35;;;;;;;23.85;45.64;94070.06;5060861;28;20208;-67
2023/08/29 03:59:24;;;;;;;7.55;4.28;;;;;;;23.76;45.96;94070.03;5077866;28;20193;-68
2023/08/29 04:01:52;;;;;;;5.72;4.22;;;;;;;23.66;46.42;94068.38;5060580;28;20546;-67
2023/08/29 04:04:19;;;;;;;6.70;4.70;;;;;;;23.64;46.40;94076.50;5077894;28;20188;-67
2023/08/29 04:06:45;;;;;;;5.50;5.00;;;;;;;23.59;46.87;94061.00;5060378;28;20204;-67
2023/08/29 04:09:14;;;;;;;6.57;5.03;;;;;;;23.58;46.58;94061.47;5060524;28;20204;-67
2023/08/29 04:11:41;;;;;;;5.07;4.57;;;;;;;23.47;46.47;94071.09;5077902;28;20181;-68
2023/08/29 04:14:07;;;;;;;6.00;4.90;;;;;;;23.37;46.65;94075.13;5077739;28;20216;-67
2023/08/29 04:16:34;;;;;;;5.40;4.63;;;;;;;23.29;47.14;94071.78;5078077;28;20204;-67
2023/08/29 04:19:02;;;;;;;6.50;4.80;;;;;;;23.25;47.24;94070.34;5060118;28;20208;-68
2023/08/29 04:21:29;;;;;;;5.57;4.65;;;;;;;23.20;47.16;94073.75;5077676;28;20189;-67
2023/08/29 04:23:56;;;;;;;5.07;4.65;;;;;;;23.15;47.25;94066.69;5059727;28;20221;-67
2023/08/29 04:26:22;;;;;;;5.18;4.75;;;;;;;23.15;47.52;94077.16;5077599;28;20182;-70
2023/08/29 04:28:50;;;;;;;5.18;4.57;;;;;;;23.13;47.76;94068.38;5043504;28;20667;-67
2023/08/29 04:31:17;;;;;;;6.75;4.72;;;;;;;23.04;47.83;94066.31;5077327;28;20201;-67
2023/08/29 04:33:44;;;;;;;6.32;4.63;;;;;;;22.97;48.24;94064.53;5077655;28;20240;-71
2023/08/29 04:36:16;;;;;;;5.60;5.00;;;;;;;22.95;48.52;94069.84;5076363;28;20625;-67
2023/08/29 04:38:44;;;;;;;6.70;4.70;;;;;;;22.92;48.44;94076.38;5077030;28;20614;-67
2023/08/29 04:41:11;;;;;;;5.65;4.93;;;;;;;22.96;48.52;94077.03;5077381;28;20254;-68
2023/08/29 04:43:39;;;;;;;8.35;5.32;;;;;;;22.97;48.34;94072.97;5077040;28;20535;-68
2023/08/29 04:46:07;;;;;;;8.20;5.13;;;;;;;23.01;48.56;94070.81;5059625;28;20616;-67
2023/08/29 04:48:34;;;;;;;7.85;4.60;;;;;;;23.02;48.22;94066.78;5059214;28;20614;-67
2023/08/29 04:51:00;;;;;;;5.72;4.85;;;;;;;23.00;48.45;94074.88;5076597;28;20189;-68
2023/08/29 04:53:29;;;;;;;5.57;5.10;;;;;;;22.98;49.23;94070.94;5077038;28;20259;-68
2023/08/29 04:56:00;;;;;;;8.50;4.85;;;;;;;22.95;49.48;94069.84;5058996;28;20197;-67
2023/08/29 04:58:27;;;;;;;6.25;4.88;;;;;;;22.97;49.65;94066.56;5076866;28;20181;-68
2023/08/29 05:00:54;;;;;;;6.10;4.60;;;;;;;22.98;49.66;94059.69;5059443;28;20204;-67
2023/08/29 05:03:21;;;;;;;5.70;4.72;;;;;;;22.99;49.49;94050.81;5076823;28;20192;-67
2023/08/29 05:05:48;;;;;;;8.30;4.70;;;;;;;23.04;49.70;94053.03;5059174;28;20209;-67
2023/08/29 05:08:15;;;;;;;6.07;4.45;;;;;;;23.00;50.25;94046.75;5076694;28;20200;-67
2023/08/29 05:10:43;;;;;;;11.15;5.32;;;;;;;22.97;49.80;94039.22;5058758;28;20193;-67
2023/08/29 05:13:10;;;;;;;5.93;5.28;;;;;;;22.99;49.59;94050.81;5059371;28;20205;-67
2023/08/29 05:15:37;;;;;;;5.32;4.65;;;;;;;23.02;50.13;94049.91;5059016;28;20220;-68
2023/08/29 05:18:04;;;;;;;6.60;4.68;;;;;;;23.05;49.86;94051.00;5058900;28;20189;-68
2023/08/29 05:20:31;;;;;;;6.05;4.68;;;;;;;23.12;49.82;94047.13;5058856;28;20275;-68
2023/08/29 05:22:57;;;;;;;5.25;4.40;;;;;;;23.19;49.75;94050.47;5059429;28;20212;-68
2023/08/29 05:25:24;;;;;;;7.60;4.72;;;;;;;23.27;49.68;94037.69;5058923;28;20197;-68
2023/08/29 05:27:53;;;;;;;6.93;4.95;;;;;;;23.36;49.56;94034.16;5075554;28;20189;-67
2023/08/29 05:30:19;;;;;;;8.32;4.70;;;;;;;23.40;49.34;94042.47;5058588;28;20200;-69
2023/08/29 05:32:46;;;;;;;5.05;4.50;;;;;;;23.44;49.65;94043.09;5076195;28;20612;-68
2023/08/29 05:35:13;;;;;;;7.85;4.47;;;;;;;23.45;49.71;94045.44;5058559;28;20220;-68
2023/08/29 05:37:40;;;;;;;5.90;4.68;;;;;;;23.47;50.27;94051.41;5058886;28;20196;-68
2023/08/29 05:40:08;;;;;;;5.68;4.95;;;;;;;23.47;49.53;94059.84;5075778;28;20601;-67
2023/08/29 05:42:35;;;;;;;6.45;5.35;;;;;;;23.47;49.57;94057.03;5076248;28;20231;-67
2023/08/29 05:45:03;;;;;;;7.50;5.30;;;;;;;23.48;49.26;94061.41;5075531;28;20322;-68
2023/08/29 05:47:30;;;;;;;7.38;4.72;;;;;;;23.51;49.05;94056.91;5075638;28;20193;-68
2023/08/29 05:49:57;;;;;;;9.63;5.20;;;;;;;23.59;48.66;94044.13;5058424;28;20200;-68
2023/08/29 05:52:24;;;;;;;5.10;4.70;;;;;;;23.69;48.59;94040.13;5075491;28;20189;-67
2023/08/29 05:54:51;;;;;;;5.78;5.22;;;;;;;23.68;49.57;94043.41;5075511;28;20637;-68
2023/08/29 05:57:18;;;;;;;5.20;4.40;;;;;;;23.65;49.23;94052.75;5075397;28;20539;-68
2023/08/29 05:59:44;;;;;;;5.75;5.25;;;;;;;23.61;49.35;94057.75;5075560;28;20189;-68
2023/08/29 06:02:12;;;;;;;6.25;5.10;;;;;;;23.63;48.90;94049.59;5057455;28;20254;-68
2023/08/29 06:04:39;;;;;;;8.52;5.57;;;;;;;23.68;49.58;94055.47;5057970;28;20212;-68
2023/08/29 06:07:07;;;;;;;5.63;4.90;;;;;;;23.73;49.67;94068.13;5057960;28;20204;-68
2023/08/29 06:09:34;;;;;;;10.48;5.20;;;;;;;23.74;49.58;94064.84;5075652;28;20190;-68
2023/08/29 06:12:01;;;;;;;6.20;5.00;;;;;;;23.78;49.29;94079.59;5075229;28;20196;-68
2023/08/29 06:14:27;;;;;;;5.57;5.07;;;;;;;23.81;49.38;94074.25;5074548;28;20218;-68
2023/08/29 06:16:54;;;;;;;6.70;4.72;;;;;;;23.82;49.59;94071.00;5075505;28;20193;-67
2023/08/29 06:19:22;;;;;;;5.95;5.38;;;;;;;23.85;49.08;94072.09;5058118;28;20208;-68
2023/08/29 06:21:49;;;;;;;6.68;5.47;;;;;;;23.92;49.54;94057.72;5057713;28;20235;-68
2023/08/29 06:24:16;;;;;;;6.60;4.95;;;;;;;23.94;49.28;94050.38;5057846;28;20193;-67
2023/08/29 06:26:43;;;;;;;6.22;4.80;;;;;;;23.89;48.72;94056.63;5075076;28;20190;-68
2023/08/29 06:29:11;;;;;;;8.05;5.15;;;;;;;23.87;48.84;94059.13;5058002;28;20189;-68
2023/08/29 06:31:37;;;;;;;7.07;5.32;;;;;;;23.87;48.78;94063.97;5075097;28;20185;-68
2023/08/29 06:34:05;;;;;;;7.32;5.03;;;;;;;23.85;49.02;94064.41;5075251;28;20185;-67
2023/08/29 06:36:33;;;;;;;7.38;5.10;;;;;;;23.87;48.40;94059.13;5074856;28;20204;-67
2023/08/29 06:39:00;;;;;;;11.07;5.43;;;;;;;24.01;49.09;94040.88;5075232;28;20193;-67
2023/08/29 06:41:27;;;;;;;10.23;6.82;;;;;;;24.28;48.97;94054.22;5057669;28;20189;-67
2023/08/29 06:43:54;;;;;;;12.80;6.45;;;;;;;24.49;47.74;94050.53;5054121;28;20236;-69
2023/08/29 06:46:20;;;;;;;6.13;5.53;;;;;;;24.66;47.25;94050.25;5055055;28;20182;-68
2023/08/29 06:48:47;;;;;;;5.68;4.88;;;;;;;24.82;46.35;94054.78;5054805;28;20599;-68
2023/08/29 06:51:14;;;;;;;5.22;4.70;;;;;;;24.85;45.34;94049.00;5054361;28;20208;-68
2023/08/29 06:53:42;;;;;;;5.47;4.80;;;;;;;24.87;45.08;94051.31;5054459;28;20205;-67
2023/08/29 06:56:09;;;;;;;7.43;4.32;;;;;;;24.88;44.64;94056.50;5053636;28;20217;-67
2023/08/29 06:58:36;;;;;;;5.13;4.57;;;;;;;24.88;45.11;94050.88;5054702;28;20193;-67
2023/08/29 07:01:03;;;;;;;5.13;4.45;;;;;;;24.93;45.24;94053.06;5054705;28;20182;-67
2023/08/29 07:03:30;;;;;;;5.07;4.57;;;;;;;24.98;44.69;94043.97;5054297;28;20205;-67
2023/08/29 07:05:57;;;;;;;5.35;4.85;;;;;;;25.06;45.17;94044.44;5054049;28;20182;-67
2023/08/29 07:08:24;;;;;;;4.82;4.40;;;;;;;25.05;43.48;94047.72;5054805;28;20190;-67
2023/08/29 07:10:52;;;;;;;5.43;4.45;;;;;;;25.03;44.23;94053.06;5054510;28;20625;-67
2023/08/29 07:13:19;;;;;;;6.03;4.40;;;;;;;25.09;44.47;94045.50;5054920;28;20202;-67
2023/08/29 07:15:45;;;;;;;4.82;4.20;;;;;;;25.11;44.41;94057.94;5057892;28;20229;-67
2023/08/29 07:18:13;;;;;;;4.40;4.00;;;;;;;25.13;44.66;94058.25;5058794;28;20189;-67
2023/08/29 07:20:40;;;;;;;4.88;4.47;;;;;;;25.17;44.54;94064.50;5057598;28;20202;-67
2023/08/29 07:23:07;;;;;;;6.63;4.75;;;;;;;25.20;44.85;94051.47;5057702;28;20216;-67
2023/08/29 07:25:38;;;;;;;5.68;4.50;;;;;;;25.25;45.02;94055.72;5058324;28;20561;-67
2023/08/29 07:28:07;;;;;;;5.53;4.72;;;;;;;25.28;44.88;94060.44;5057799;28;20246;-68
2023/08/29 07:30:34;;;;;;;5.05;4.47;;;;;;;25.40;44.79;94050.97;5057282;28;20220;-68
2023/08/29 07:33:01;;;;;;;5.35;4.85;;;;;;;25.50;44.05;94046.09;5074302;28;20198;-68
2023/08/29 07:35:28;;;;;;;7.45;4.82;;;;;;;25.59;43.86;94054.53;5074451;28;20222;-68
2023/08/29 07:37:54;;;;;;;6.22;4.75;;;;;;;25.65;43.85;94061.88;5058151;28;20186;-68
2023/08/29 07:40:21;;;;;;;5.15;4.65;;;;;;;25.71;43.27;94056.41;5057216;28;20205;-68
2023/08/29 07:42:48;;;;;;;4.68;4.28;;;;;;;25.70;42.68;94052.75;5057246;28;20218;-68
2023/08/29 07:45:16;;;;;;;5.60;4.90;;;;;;;25.72;43.35;94054.34;5077582;28;20240;-68
2023/08/29 07:47:43;;;;;;;5.22;4.70;;;;;;;25.76;42.85;94057.78;5077324;28;20185;-67
2023/08/29 07:50:10;;;;;;;5.50;5.00;;;;;;;25.81;42.82;94045.84;5060316;28;20197;-67
2023/08/29 07:52:37;;;;;;;5.80;4.95;;;;;;;25.86;42.71;94039.56;5077259;28;20603;-68
2023/08/29 07:55:04;;;;;;;6.93;5.07;;;;;;;25.89;42.64;94045.06;5078041;28;20216;-68
2023/08/29 07:57:31;;;;;;;7.10;4.82;;;;;;;25.88;42.67;94045.50;5078500;28;20251;-68
2023/08/29 07:59:58;;;;;;;5.40;4.90;;;;;;;25.86;42.62;94043.19;5060290;28;20201;-68
2023/08/29 08:02:27;;;;;;;5.35;4.65;;;;;;;25.83;42.80;94037.69;5077654;28;20628;-68
2023/08/29 08:04:54;;;;;;;7.18;5.22;;;;;;;25.97;43.09;94036.22;5078023;28;20193;-68
2023/08/29 08:07:21;;;;;;;5.60;4.78;;;;;;;26.09;42.73;94035.22;5060484;28;20212;-68
2023/08/29 08:09:48;;;;;;;7.95;5.13;;;;;;;26.17;42.58;94036.41;5060232;28;20196;-69
2023/08/29 08:12:15;;;;;;;7.45;5.30;;;;;;;26.26;42.61;94036.38;5060389;28;20200;-68
2023/08/29 08:14:41;;;;;;;6.03;4.50;;;;;;;26.39;42.35;94028.44;5077214;28;20193;-68
2023/08/29 08:17:08;;;;;;;5.53;4.93;;;;;;;26.37;41.67;94030.19;5077849;28;20207;-67
2023/08/29 08:19:36;;;;;;;5.32;4.90;;;;;;;26.31;41.75;94035.72;5060162;28;20256;-67
2023/08/29 08:22:03;;;;;;;6.07;5.03;;;;;;;26.32;42.33;94025.97;5060260;28;20200;-67
2023/08/29 08:24:31;;;;;;;7.85;5.47;;;;;;;26.39;42.23;94019.94;5076450;28;20193;-68
2023/08/29 08:26:58;;;;;;;5.80;5.30;;;;;;;26.51;42.97;94015.38;5076959;28;20197;-68
2023/08/29 08:29:24;;;;;;;5.35;4.82;;;;;;;26.66;42.06;94006.94;5076989;28;20561;-68
2023/08/29 08:31:51;;;;;;;5.55;5.05;;;;;;;26.82;41.52;94011.34;5059943;28;20197;-68
2023/08/29 08:34:18;;;;;;;6.38;5.10;;;;;;;26.96;41.63;94009.81;5059773;28;20197;-68
2023/08/29 08:36:46;;;;;;;7.03;4.82;;;;;;;27.10;40.52;94006.22;5077361;28;20538;-67
2023/08/29 08:39:13;;;;;;;5.80;5.32;;;;;;;27.17;39.99;94000.22;5059979;28;20205;-67
2023/08/29 08:41:40;;;;;;;5.95;5.43;;;;;;;27.30;40.02;93999.91;5076544;28;20201;-68
2023/08/29 08:44:10;;;;;;;5.90;5.30;;;;;;;27.39;40.07;93999.81;5077367;28;20256;-68
2023/08/29 08:46:37;;;;;;;5.80;5.25;;;;;;;27.50;39.44;94004.91;5076791;28;20613;-68
2023/08/29 08:49:04;;;;;;;7.03;5.85;;;;;;;27.56;39.33;94003.72;5059619;28;20192;-68
2023/08/29 08:51:32;;;;;;;6.10;5.50;;;;;;;27.65;38.99;94000.00;5059656;28;20201;-68
2023/08/29 08:54:01;;;;;;;6.55;5.88;;;;;;;27.65;39.48;94000.00;5059434;28;20212;-70
2023/08/29 08:56:28;;;;;;;5.85;5.30;;;;;;;27.67;39.79;93997.47;5059214;28;20212;-68
2023/08/29 08:58:55;;;;;;;6.00;5.45;;;;;;;27.82;39.27;93988.97;5059248;28;20204;-68
2023/08/29 09:01:22;;;;;;;5.53;4.90;;;;;;;27.79;39.18;93996.38;5059731;28;20211;-68
2023/08/29 09:03:49;;;;;;;5.72;4.90;;;;;;;27.75;38.76;93989.38;5058939;28;20216;-68
2023/08/29 09:06:16;;;;;;;6.28;5.57;;;;;;;27.68;38.92;93987.69;5076494;28;20188;-67
2023/08/29 09:08:42;;;;;;;5.90;5.30;;;;;;;27.60;39.12;93992.19;5075868;28;20193;-68
2023/08/29 09:11:11;;;;;;;6.55;5.47;;;;;;;27.55;39.08;93990.03;5059194;28;20185;-67
2023/08/29 09:13:46;;;;;;;5.32;4.80;;;;;;;27.49;39.31;93986.31;5059069;28;20205;-68
2023/08/29 09:16:13;;;;;;;5.75;5.15;;;;;;;27.44;39.47;93981.34;5058828;28;20228;-72
2023/08/29 09:18:43;;;;;;;6.47;5.13;;;;;;;27.40;39.08;93975.13;5058573;28;20212;-68
2023/08/29 09:21:16;;;;;;;7.10;5.65;;;;;;;27.33;39.74;93971.41;5058731;28;20185;-68
2023/08/29 09:23:44;;;;;;;5.90;5.32;;;;;;;27.31;39.77;93971.13;5076565;28;20181;-68
2023/08/29 09:26:13;;;;;;;6.05;5.45;;;;;;;27.27;40.03;93966.91;5075406;28;20189;-68
2023/08/29 09:28:40;;;;;;;5.75;5.07;;;;;;;27.22;39.68;93967.59;5058780;28;20228;-68
2023/08/29 09:31:08;;;;;;;5.70;5.00;;;;;;;27.19;39.36;93974.25;5058667;28;20288;-68
2023/08/29 09:33:35;;;;;;;5.80;5.10;;;;;;;27.16;39.80;93975.22;5058825;28;20221;-67
2023/08/29 09:36:03;;;;;;;6.03;5.43;;;;;;;27.15;40.09;93976.47;5058461;28;20209;-68
2023/08/29 09:38:30;;;;;;;6.30;5.70;;;;;;;27.15;40.22;93982.16;5058462;28;20197;-68
2023/08/29 09:40:57;;;;;;;5.47;4.88;;;;;;;27.13;40.20;93982.66;5076195;28;20256;-68
2023/08/29 09:43:28;;;;;;;5.78;5.25;;;;;;;27.13;40.48;93981.88;5055353;28;20244;-68
2023/08/29 09:45:55;;;;;;;5.78;5.22;;;;;;;27.13;40.37;93981.88;5054845;28;20268;-68
2023/08/29 09:48:22;;;;;;;6.65;5.40;;;;;;;27.10;40.41;93975.88;5054964;28;20518;-68
2023/08/29 09:50:50;;;;;;;7.15;5.15;;;;;;;27.09;40.34;93982.03;5055127;28;20205;-68
2023/08/29 09:53:19;;;;;;;6.90;5.00;;;;;;;27.08;39.93;93986.09;5055935;28;20201;-67
2023/08/29 09:55:48;;;;;;;5.88;5.20;;;;;;;27.07;39.87;93981.72;5054852;28;20209;-68
2023/08/29 09:58:17;;;;;;;6.00;5.43;;;;;;;27.03;39.62;93987.56;5054799;28;20202;-68
2023/08/29 10:00:46;;;;;;;8.60;5.50;;;;;;;27.01;39.97;93986.50;5071541;28;20625;-68
2023/08/29 10:03:13;;;;;;;5.43;4.93;;;;;;;26.98;40.84;93981.81;5055448;28;20514;-68
2023/08/29 10:05:42;;;;;;;5.70;5.20;;;;;;;26.98;40.55;93979.78;5054771;28;20208;-68
2023/08/29 10:08:27;;;;;;;6.10;5.18;;;;;;;27.00;40.25;93977.22;5054694;28;20204;-68
2023/08/29 10:10:55;;;;;;;5.65;5.03;;;;;;;27.02;40.54;93976.75;5054387;28;20205;-68
2023/08/29 10:13:22;;;;;;;5.75;5.25;;;;;;;27.05;40.59;93973.72;5054665;28;20198;-68
2023/08/29 10:15:51;;;;;;;6.35;5.28;;;;;;;27.10;40.32;93964.56;5055166;28;20668;-68
2023/08/29 10:18:19;;;;;;;6.47;5.65;;;;;;;27.16;40.47;93961.84;5054603;28;20221;-68
2023/08/29 10:20:47;;;;;;;5.63;5.03;;;;;;;27.24;40.37;93965.84;5054651;28;20293;-68
2023/08/29 10:23:14;;;;;;;5.68;5.20;;;;;;;27.29;40.21;93968.00;5054631;28;20233;-68
2023/08/29 10:25:41;;;;;;;5.35;4.85;;;;;;;27.34;40.04;93961.66;5054550;28;20206;-68
2023/08/29 10:28:10;;;;;;;5.47;4.97;;;;;;;27.38;39.82;93958.63;5054540;28;20196;-68
2023/08/29 10:30:39;;;;;;;5.40;4.90;;;;;;;27.38;39.52;93958.63;5071077;28;20225;-68
2023/08/29 10:33:07;;;;;;;5.75;5.15;;;;;;;27.36;39.88;93955.50;5054608;28;20209;-68
2023/08/29 10:35:34;;;;;;;7.18;5.13;;;;;;;27.33;40.36;93957.25;5054491;28;20214;-68
2023/08/29 10:38:02;;;;;;;5.75;4.97;;;;;;;27.31;39.78;93947.72;5054314;28;20190;-68
2023/08/29 10:40:34;;;;;;;10.20;5.55;;;;;;;27.28;40.37;93946.63;5054200;28;20202;-68
2023/08/29 10:43:02;;;;;;;7.45;5.30;;;;;;;27.29;40.25;93950.22;5055747;28;20675;-68
2023/08/29 10:45:47;;;;;;;5.80;5.10;;;;;;;27.26;39.86;93937.81;5057548;28;20549;-68
2023/08/29 10:48:18;;;;;;;5.93;4.70;;;;;;;27.25;40.58;93938.31;5074674;28;20207;-68
2023/08/29 10:50:49;;;;;;;5.60;5.00;;;;;;;27.25;40.56;93936.28;5057141;28;20621;-68
2023/08/29 10:53:19;;;;;;;5.63;5.22;;;;;;;27.26;40.62;93937.81;5057363;28;20562;-68
2023/08/29 10:55:59;;;;;;;5.78;5.28;;;;;;;27.24;40.16;93931.91;5056961;28;20270;-68
2023/08/29 10:58:33;;;;;;;5.10;4.70;;;;;;;27.25;40.62;93935.50;5075050;28;20188;-68
2023/08/29 11:01:00;;;;;;;5.25;4.75;;;;;;;27.26;40.20;93934.22;5075209;28;20200;-68
2023/08/29 11:03:49;;;;;;;5.85;5.43;;;;;;;27.24;40.19;93934.72;5074806;28;20178;-68
2023/08/29 11:06:17;;;;;;;6.38;5.43;;;;;;;27.23;40.39;93924.66;5074571;28;20200;-68
2023/08/29 11:08:44;;;;;;;5.55;5.10;;;;;;;27.25;40.69;93924.19;5075017;28;20292;-68
2023/08/29 11:11:16;;;;;;;5.75;5.20;;;;;;;27.27;41.53;93925.25;5057118;28;20201;-68
2023/08/29 11:13:58;;;;;;;5.80;4.80;;;;;;;27.29;41.29;93919.09;5057478;28;20215;-69
2023/08/29 11:16:25;;;;;;;6.30;5.70;;;;;;;27.30;40.99;93924.25;5053804;28;20656;-68
2023/08/29 11:19:11;;;;;;;5.60;5.13;;;;;;;27.28;41.11;93920.38;5074805;28;20193;-68
2023/08/29 11:21:38;;;;;;;6.90;6.20;;;;;;;27.30;41.71;93920.66;5074095;28;20254;-68
2023/08/29 11:24:06;;;;;;;5.60;5.10;;;;;;;27.28;41.14;93915.50;5074111;28;20194;-68
2023/08/29 11:26:35;;;;;;;5.90;5.28;;;;;;;27.27;40.97;93922.44;5073753;28;20262;-68
2023/08/29 11:29:05;;;;;;;6.05;5.43;;;;;;;27.29;41.68;93921.94;5057058;28;20243;-69
2023/08/29 11:31:33;;;;;;;5.97;5.32;;;;;;;27.30;41.48;93917.81;5057875;28;20517;-68
2023/08/29 11:34:01;;;;;;;6.13;5.53;;;;;;;27.28;41.12;93912.66;5057290;28;20258;-68
2023/08/29 11:36:33;;;;;;;5.38;4.97;;;;;;;27.27;41.10;93919.59;5056961;28;20231;-68